CheckWX is a tool to help pilots better visualize weather data.  It is not intended as a substitute for an official pre-flight weather briefing.

18:03:02 UTC

OPRK TAF
Shaikh Zaid Airport
Rahim Yar Khan, Pakistan
TAF OPRK 241600Z 2418/2512 05005KT 4000 FU SCT120 TN27/2501Z TX40/2510Z PROB30 TEMPO 2418/2424 36020KT 1500 BLDU FEW040

Apr-24@
18:00 UTC

Apr-24 @ 18:00 UTC

Apr-25@
12:00 UTC

Apr-25 @ 12:00 UTC

TAF OPRK 241600Z 2418/2512 05005KT 4000 FU SCT120 TN27/2501Z TX40/2510Z
Wind
  • 050° at 5 KTS
Conditions
Smoke
Cloud Levels
  • Scattered at 12,000' AGL

Apr-24@
18:00 UTC

Apr-24 @ 18:00 UTC

Apr-25@
00:00 UTC

Apr-25 @ 00:00 UTC

PROB30 TEMPO 2418/2424 36020KT 1500 BLDU FEW040

Temporary - 30% Likelihood

Temporary - 30% Likelihood during this time.

Wind
  • 360° at 20 KTS
Conditions
Blowing Dust
Cloud Levels
  • Few at 4,000' AGL